Nathaniel B. Palmer — WBP3210 — position and weather

sailwx.info

Track history (hours):
 
Tides and Currents Weather Stations Pressure Air Temp Water Temp Dewpoint Dewpoint Depression Visibility Wind Speed Wind Dir Waves Ship Positions

Oceanographic research ship Nathaniel B. Palmer (USA)

Contact: Ethan Norris, ethan.norris.contractor@usap.gov

Detailed information on ship capabilities available from University of Delaware's Ocean Information Center and ARCUS's ALIAS (Arctic Logistics Information and Support) project.

Owner: OFFSHORE SERVICE VESSELS, GALLIANO, LA. More information available from US FCC via Universal Licensing System and Coast Guard Vessel Documentation Center.

Last reported at 2014-Oct-20 12:00 UTC. Time now 2014-Oct-20 13:03 UTC.
Position S 52°54' W 065°00'.

Type: Other ship. MMSI: 366610000.

Wind from 010 at 28 knots

Barometer 1001.7 mb
Air temperature 6.1 ° C
Water temperature 4.9 ° C

Date/timePositionNaut miles runAvg speedWind from/ knotsBaromVisibWave heightAir tempDewpointWater temp
2014-Oct-20 12:00S 52°54' W 065°00'19 9.5 010 / 281001.7 6.1 4.9
2014-Oct-20 10:00S 53°00' W 064°30'62 7.8 020 / 281004.3 5.8 4.9
2014-Oct-20 02:00S 53°12' W 062°48'18 9.0 350 / 241012.9 5.7 4.9
2014-Oct-20 00:00S 53°12' W 062°18'16 7.8 340 / 261014.4 5.7 4.9
2014-Oct-19 22:00S 53°18' W 061°54'18 9.0 330 / 221015.0 5.9 4.9
2014-Oct-19 20:00S 53°18' W 061°24'2211.2 340 / 241016.0 5.9 4.9
2014-Oct-19 18:00S 53°24' W 060°48'19 9.4 330 / 201016.8 5.7 4.9
2014-Oct-19 16:00S 53°30' W 060°18'14 7.1 340 / 131017.8 5.7 4.9
2014-Oct-19 14:00S 53°30' W 059°54'11 5.4 310 / 121017.9 5.6 4.9
2014-Oct-19 12:00S 53°30' W 059°36'2211.1 290 / 91018.1 5.7 4.9
2014-Oct-19 10:00S 53°36' W 059°00'79 9.9 250 / 91017.6 4.6 4.9
2014-Oct-19 02:00S 53°48' W 056°48'2211.0 220 / 231011.5 3.5 4.9
2014-Oct-19 00:00S 53°54' W 056°12'19 9.3 210 / 261009.4 3.9 4.9
2014-Oct-18 22:00S 54°00' W 055°42'18 8.8 220 / 271007.2 3.9 4.9
2014-Oct-18 20:00S 54°00' W 055°12'19 9.3 230 / 301004.7 3.3 4.9
2014-Oct-18 18:00S 54°06' W 054°42'18 8.8 240 / 241003.7 3.8 4.9
2014-Oct-18 16:00S 54°06' W 054°12'19 9.3 240 / 171004.0 2.8 4.9
2014-Oct-18 14:00S 54°12' W 053°42'2110.5 230 / 201003.6 2.1 4.9
2014-Oct-18 12:00S 54°12' W 053°06'36 8.9 220 / 231002.8 1.3 3.6
2014-Oct-18 08:00S 54°18' W 052°06'35 8.9 210 / 26998.8 0.8 3.6
2014-Oct-18 04:00S 54°24' W 051°06'2210.9 270 / 15996.8 1.5 0.2
2014-Oct-18 02:00S 54°30' W 050°30'18 9.2 250 / 15996.0 1.6 0.3
2014-Oct-18 00:00S 54°36' W 050°00'17 8.7 240 / 19994.9 1.6 2.4
2014-Oct-17 22:00S 54°36' W 049°30'18 9.2 230 / 17993.9 1.2 0.4
2014-Oct-17 20:00S 54°42' W 049°00'313 6.5 250 / 17992.0 1.4 0.8
2014-Oct-15 20:00S 55°36' W 040°00'   260 / 28994.3 -2.3 0.5
Track history (hours):
 
Tides and Currents Weather Stations Pressure Air Temp Water Temp Dewpoint Dewpoint Depression Visibility Wind Speed Wind Dir Waves Ship Positions

Oceanographic research ship Nathaniel B. Palmer (USA)

Contact: Ethan Norris, ethan.norris.contractor@usap.gov

Detailed information on ship capabilities available from University of Delaware's Ocean Information Center and ARCUS's ALIAS (Arctic Logistics Information and Support) project.

Owner: OFFSHORE SERVICE VESSELS, GALLIANO, LA. More information available from US FCC via Universal Licensing System and Coast Guard Vessel Documentation Center.

Last reported at 2014-Oct-20 12:00 UTC. Time now 2014-Oct-20 13:03 UTC.
Position S 52°54' W 065°00'.

Type: Other ship. MMSI: 366610000.

Wind from 010 at 28 knots

Barometer 1001.7 mb
Air temperature 6.1 ° C
Water temperature 4.9 ° C

Date/timePositionNaut miles runAvg speedWind from/ knotsBaromVisibWave heightAir tempDewpointWater temp
2014-Oct-20 12:00S 52°54' W 065°00'19 9.5 010 / 281001.7 6.1 4.9
2014-Oct-20 10:00S 53°00' W 064°30'62 7.8 020 / 281004.3 5.8 4.9
2014-Oct-20 02:00S 53°12' W 062°48'18 9.0 350 / 241012.9 5.7 4.9
2014-Oct-20 00:00S 53°12' W 062°18'16 7.8 340 / 261014.4 5.7 4.9
2014-Oct-19 22:00S 53°18' W 061°54'18 9.0 330 / 221015.0 5.9 4.9
2014-Oct-19 20:00S 53°18' W 061°24'2211.2 340 / 241016.0 5.9 4.9
2014-Oct-19 18:00S 53°24' W 060°48'19 9.4 330 / 201016.8 5.7 4.9
2014-Oct-19 16:00S 53°30' W 060°18'14 7.1 340 / 131017.8 5.7 4.9
2014-Oct-19 14:00S 53°30' W 059°54'11 5.4 310 / 121017.9 5.6 4.9
2014-Oct-19 12:00S 53°30' W 059°36'2211.1 290 / 91018.1 5.7 4.9
2014-Oct-19 10:00S 53°36' W 059°00'79 9.9 250 / 91017.6 4.6 4.9
2014-Oct-19 02:00S 53°48' W 056°48'2211.0 220 / 231011.5 3.5 4.9
2014-Oct-19 00:00S 53°54' W 056°12'19 9.3 210 / 261009.4 3.9 4.9
2014-Oct-18 22:00S 54°00' W 055°42'18 8.8 220 / 271007.2 3.9 4.9
2014-Oct-18 20:00S 54°00' W 055°12'19 9.3 230 / 301004.7 3.3 4.9
2014-Oct-18 18:00S 54°06' W 054°42'18 8.8 240 / 241003.7 3.8 4.9
2014-Oct-18 16:00S 54°06' W 054°12'19 9.3 240 / 171004.0 2.8 4.9
2014-Oct-18 14:00S 54°12' W 053°42'2110.5 230 / 201003.6 2.1 4.9
2014-Oct-18 12:00S 54°12' W 053°06'36 8.9 220 / 231002.8 1.3 3.6
2014-Oct-18 08:00S 54°18' W 052°06'35 8.9 210 / 26998.8 0.8 3.6
2014-Oct-18 04:00S 54°24' W 051°06'2210.9 270 / 15996.8 1.5 0.2
2014-Oct-18 02:00S 54°30' W 050°30'18 9.2 250 / 15996.0 1.6 0.3
2014-Oct-18 00:00S 54°36' W 050°00'17 8.7 240 / 19994.9 1.6 2.4
2014-Oct-17 22:00S 54°36' W 049°30'18 9.2 230 / 17993.9 1.2 0.4
2014-Oct-17 20:00S 54°42' W 049°00'313 6.5 250 / 17992.0 1.4 0.8
2014-Oct-15 20:00S 55°36' W 040°00'   260 / 28994.3 -2.3 0.5

Dump ship's entire track history